Time;durP1;ratioP1;P1;durP2;ratioP2;P2;SDS_P1;SDS_P2;PMS_P1;PMS_P2;Temp;Humidity;BMP_temperature;BMP_pressure;BME280_temperature;BME280_humidity;BME280_pressure;Samples;Min_cycle;Max_cycle;Signal;HPM_P1;HPM_P2
2022/04/07 00:00:58;;;;;;;3.73;2.23;;;10.40;92.90;;;;;;5035085;28;20483;-80
2022/04/07 00:03:24;;;;;;;3.83;2.10;;;10.40;93.00;;;;;;5031133;28;20193;-80
2022/04/07 00:05:49;;;;;;;2.90;2.33;;;10.40;92.90;;;;;;5031618;28;20216;-80
2022/04/07 00:08:15;;;;;;;2.53;1.90;;;10.40;92.80;;;;;;5033595;28;20556;-79
2022/04/07 00:10:41;;;;;;;3.80;1.90;;;10.40;92.90;;;;;;5025346;28;20216;-77
2022/04/07 00:13:07;;;;;;;2.63;1.70;;;10.40;93.00;;;;;;5032919;28;20745;-78
2022/04/07 00:15:33;;;;;;;2.43;1.77;;;10.30;93.10;;;;;;5026255;28;20447;-80
2022/04/07 00:17:59;;;;;;;2.33;1.90;;;10.30;93.00;;;;;;5033576;28;20419;-80
2022/04/07 00:20:29;;;;;;;2.57;1.90;;;10.30;93.10;;;;;;5032095;28;20991;-79
2022/04/07 00:22:57;;;;;;;1.73;1.50;;;10.30;92.90;;;;;;5031290;28;20177;-80
2022/04/07 00:25:25;;;;;;;2.30;1.60;;;10.30;92.90;;;;;;5036300;28;20443;-79
2022/04/07 00:27:51;;;;;;;3.13;1.80;;;10.30;92.60;;;;;;5034708;28;20572;-79
2022/04/07 00:30:20;;;;;;;3.70;1.80;;;10.30;92.40;;;;;;5032313;28;20465;-79
2022/04/07 00:32:46;;;;;;;2.27;1.60;;;10.30;92.30;;;;;;5036282;28;20486;-78
2022/04/07 00:35:12;;;;;;;4.10;1.37;;;10.40;91.90;;;;;;5037769;28;20455;-79
2022/04/07 00:37:39;;;;;;;2.27;1.57;;;10.40;91.60;;;;;;5036783;28;20420;-79
2022/04/07 00:40:06;;;;;;;3.20;1.40;;;10.50;91.40;;;;;;5034823;28;20426;-80
2022/04/07 00:42:32;;;;;;;2.63;1.87;;;10.60;91.40;;;;;;5032417;28;20432;-79
2022/04/07 00:44:59;;;;;;;2.30;1.57;;;10.50;91.30;;;;;;5035281;28;20470;-78
2022/04/07 00:47:27;;;;;;;2.23;1.67;;;10.60;91.40;;;;;;5035677;28;20424;-79
2022/04/07 00:49:53;;;;;;;2.13;1.53;;;10.50;91.40;;;;;;5043776;28;20984;-77
2022/04/07 00:52:20;;;;;;;3.57;1.70;;;10.60;91.50;;;;;;5052946;28;20424;-77
2022/04/07 00:54:48;;;;;;;2.83;1.60;;;10.60;91.30;;;;;;5047823;28;20451;-80
2022/04/07 00:57:14;;;;;;;2.30;1.27;;;10.60;91.30;;;;;;5048646;28;20434;-78
2022/04/07 00:59:41;;;;;;;1.70;1.30;;;10.60;91.10;;;;;;5045346;28;20452;-79
2022/04/07 01:02:09;;;;;;;1.30;1.27;;;10.60;91.10;;;;;;5049447;28;20418;-78
2022/04/07 01:04:34;;;;;;;2.13;1.30;;;10.50;91.20;;;;;;5039166;28;20575;-78
2022/04/07 01:07:00;;;;;;;1.90;1.43;;;10.60;91.40;;;;;;5042975;28;20477;-79
2022/04/07 01:09:26;;;;;;;2.33;1.50;;;10.60;91.50;;;;;;5052627;28;20193;-78
2022/04/07 01:11:52;;;;;;;1.70;1.20;;;10.60;91.60;;;;;;5056741;28;20236;-80
2022/04/07 01:14:18;;;;;;;2.17;1.50;;;10.60;91.70;;;;;;5051343;28;20544;-79
2022/04/07 01:16:44;;;;;;;3.00;1.40;;;10.50;91.70;;;;;;5046948;28;20416;-80
2022/04/07 01:19:10;;;;;;;4.40;1.40;;;10.50;91.90;;;;;;5043349;28;20170;-80
2022/04/07 01:21:37;;;;;;;2.10;1.20;;;10.40;91.80;;;;;;5051025;28;20181;-81
2022/04/07 01:24:05;;;;;;;1.43;1.33;;;10.50;91.80;;;;;;5050906;28;20451;-80
2022/04/07 01:26:33;;;;;;;1.83;1.40;;;10.50;91.90;;;;;;5049757;28;20448;-79
2022/04/07 01:29:00;;;;;;;1.60;1.30;;;10.40;92.00;;;;;;5045239;28;20416;-79
2022/04/07 01:31:27;;;;;;;3.30;1.30;;;10.50;92.00;;;;;;5048462;28;20420;-79
2022/04/07 01:33:54;;;;;;;1.87;1.33;;;10.40;92.00;;;;;;5049304;28;20471;-79
2022/04/07 01:36:20;;;;;;;1.60;1.40;;;10.50;92.00;;;;;;5054467;28;20425;-80
2022/04/07 01:38:47;;;;;;;2.43;1.50;;;10.40;91.80;;;;;;5038421;28;20431;-78
2022/04/07 01:41:13;;;;;;;4.57;2.00;;;10.40;91.60;;;;;;5041246;28;20427;-78
2022/04/07 01:43:40;;;;;;;1.87;1.43;;;10.30;91.60;;;;;;5044681;28;20929;-78
2022/04/07 01:46:08;;;;;;;1.77;1.23;;;10.40;91.60;;;;;;5043101;28;20451;-80
2022/04/07 01:48:34;;;;;;;3.53;1.77;;;10.30;91.60;;;;;;5032858;28;20450;-79
2022/04/07 01:51:02;;;;;;;2.70;1.50;;;10.30;91.60;;;;;;5037276;28;20527;-78
2022/04/07 01:53:29;;;;;;;2.80;1.70;;;10.30;91.50;;;;;;5035427;28;20201;-78
2022/04/07 01:55:55;;;;;;;2.73;1.20;;;10.30;91.40;;;;;;5033255;28;20436;-78
2022/04/07 01:58:22;;;;;;;2.03;1.50;;;10.30;91.10;;;;;;5035598;28;20416;-79
2022/04/07 02:00:48;;;;;;;2.47;1.30;;;10.30;91.00;;;;;;5034318;28;20416;-79
2022/04/07 02:03:14;;;;;;;2.17;1.70;;;10.30;90.90;;;;;;5038462;28;20430;-77
2022/04/07 02:05:39;;;;;;;1.77;1.33;;;10.40;91.00;;;;;;5036329;28;20209;-78
2022/04/07 02:08:05;;;;;;;1.93;1.53;;;10.40;91.20;;;;;;5037662;28;20217;-79
2022/04/07 02:10:32;;;;;;;3.73;2.00;;;10.40;91.20;;;;;;5037135;28;20216;-78
2022/04/07 02:12:58;;;;;;;2.93;1.90;;;10.40;91.00;;;;;;5033401;28;20452;-79
2022/04/07 02:15:26;;;;;;;3.10;1.70;;;10.40;91.00;;;;;;5035909;28;21023;-79
2022/04/07 02:17:52;;;;;;;1.43;1.30;;;10.40;90.90;;;;;;5037026;28;20477;-80
2022/04/07 02:20:19;;;;;;;2.30;1.70;;;10.40;90.80;;;;;;5039140;28;20431;-79
2022/04/07 02:22:44;;;;;;;2.20;1.50;;;10.40;90.50;;;;;;5038786;28;20432;-78
2022/04/07 02:25:10;;;;;;;4.50;1.70;;;10.40;90.60;;;;;;5036231;28;20496;-79
2022/04/07 02:27:41;;;;;;;2.27;1.70;;;10.40;90.40;;;;;;5039033;28;20173;-79
2022/04/07 02:30:12;;;;;;;1.40;1.33;;;10.40;90.40;;;;;;5040198;28;21031;-78
2022/04/07 02:32:38;;;;;;;2.00;1.40;;;10.30;90.50;;;;;;5037689;28;20466;-77
2022/04/07 02:35:04;;;;;;;2.10;1.80;;;10.30;90.60;;;;;;5040612;28;20527;-78
2022/04/07 02:37:30;;;;;;;2.20;1.37;;;10.30;90.60;;;;;;5038564;28;20424;-78
2022/04/07 02:39:56;;;;;;;2.10;1.33;;;10.30;90.60;;;;;;5037498;28;20992;-78
2022/04/07 02:42:21;;;;;;;2.20;1.40;;;10.30;90.50;;;;;;5037620;28;20181;-78
2022/04/07 02:44:47;;;;;;;1.83;1.40;;;10.30;90.50;;;;;;5034643;28;20275;-77
2022/04/07 02:47:13;;;;;;;1.60;1.43;;;10.30;90.10;;;;;;5031290;28;20423;-77
2022/04/07 02:49:39;;;;;;;1.63;1.40;;;10.30;90.10;;;;;;5035605;28;20640;-77
2022/04/07 02:52:09;;;;;;;2.20;1.30;;;10.30;90.20;;;;;;5043121;28;20427;-78
2022/04/07 02:54:35;;;;;;;1.27;1.23;;;10.20;90.20;;;;;;5040377;28;20197;-78
2022/04/07 02:57:01;;;;;;;2.00;1.40;;;10.20;90.30;;;;;;5035566;28;21002;-78
2022/04/07 02:59:27;;;;;;;1.60;1.43;;;10.20;90.30;;;;;;5037102;28;20773;-79
2022/04/07 03:01:56;;;;;;;1.50;1.13;;;10.20;90.20;;;;;;5040817;28;20419;-77
2022/04/07 03:04:25;;;;;;;1.80;1.40;;;10.10;89.90;;;;;;5039563;28;20204;-80
2022/04/07 03:06:52;;;;;;;3.00;1.20;;;10.10;89.30;;;;;;5041504;28;20435;-79
2022/04/07 03:09:19;;;;;;;1.33;1.20;;;10.10;88.40;;;;;;5041278;28;20425;-77
2022/04/07 03:11:46;;;;;;;1.80;1.17;;;10.10;87.80;;;;;;5035419;28;20929;-79
2022/04/07 03:14:12;;;;;;;2.70;1.20;;;10.10;87.00;;;;;;5032197;28;20471;-78
2022/04/07 03:16:39;;;;;;;1.00;0.90;;;10.00;86.60;;;;;;5035085;28;20424;-78
2022/04/07 03:19:04;;;;;;;1.70;1.20;;;10.00;86.60;;;;;;5032565;28;20408;-77
2022/04/07 03:21:30;;;;;;;1.73;1.13;;;10.00;86.30;;;;;;5034845;28;20423;-77
2022/04/07 03:23:56;;;;;;;1.60;1.13;;;10.10;86.30;;;;;;5044119;28;20950;-78
2022/04/07 03:26:22;;;;;;;1.47;1.10;;;10.00;86.00;;;;;;5054718;28;20260;-77
2022/04/07 03:28:48;;;;;;;1.63;1.03;;;10.10;86.00;;;;;;5047571;28;20181;-79
2022/04/07 03:31:13;;;;;;;1.60;1.17;;;10.10;85.70;;;;;;5037857;28;20316;-78
2022/04/07 03:33:39;;;;;;;1.67;1.20;;;10.10;86.00;;;;;;5040567;28;20232;-79
2022/04/07 03:36:05;;;;;;;1.13;1.13;;;10.10;85.50;;;;;;5037111;28;20515;-77
2022/04/07 03:38:31;;;;;;;1.93;0.90;;;10.10;85.00;;;;;;5035685;28;20420;-78
2022/04/07 03:40:57;;;;;;;2.27;0.90;;;10.10;84.70;;;;;;5032175;28;20181;-80
2022/04/07 03:43:22;;;;;;;2.17;1.27;;;10.20;85.20;;;;;;5038207;28;20290;-81
2022/04/07 03:45:49;;;;;;;1.70;1.30;;;10.20;86.00;;;;;;5033307;28;20205;-79
2022/04/07 03:48:14;;;;;;;2.37;1.30;;;10.10;86.60;;;;;;5037524;28;20184;-77
2022/04/07 03:50:41;;;;;;;1.87;1.10;;;10.00;86.80;;;;;;5034142;28;20588;-79
2022/04/07 03:53:07;;;;;;;1.80;1.30;;;10.00;87.00;;;;;;5032265;28;20583;-79
2022/04/07 03:55:33;;;;;;;2.33;1.00;;;10.00;86.90;;;;;;5033996;28;21150;-78
2022/04/07 03:57:58;;;;;;;1.23;0.97;;;10.00;86.30;;;;;;5032298;28;20523;-79
2022/04/07 04:00:26;;;;;;;1.27;1.00;;;10.00;86.30;;;;;;5031679;28;20192;-79
2022/04/07 04:02:52;;;;;;;1.37;0.93;;;10.00;86.50;;;;;;5032311;28;20614;-77
2022/04/07 04:05:18;;;;;;;1.40;1.20;;;10.00;86.20;;;;;;5034044;28;20500;-77
2022/04/07 04:07:44;;;;;;;2.30;1.20;;;10.10;86.00;;;;;;5031232;28;20424;-79
2022/04/07 04:10:10;;;;;;;1.70;1.30;;;10.10;85.90;;;;;;5032300;28;20427;-78
2022/04/07 04:12:36;;;;;;;1.90;1.13;;;10.00;85.70;;;;;;5031203;28;20965;-77
2022/04/07 04:15:02;;;;;;;1.50;1.20;;;10.10;85.60;;;;;;5032810;28;20474;-78
2022/04/07 04:17:32;;;;;;;2.80;1.40;;;10.00;85.70;;;;;;5031090;28;20209;-78
2022/04/07 04:19:58;;;;;;;1.83;1.40;;;10.00;85.70;;;;;;5033787;28;20420;-79
2022/04/07 04:22:24;;;;;;;1.53;1.20;;;10.00;85.60;;;;;;5032135;28;20844;-76
2022/04/07 04:24:50;;;;;;;1.87;1.47;;;10.10;85.50;;;;;;5031818;28;20550;-77
2022/04/07 04:27:16;;;;;;;2.13;1.40;;;10.10;85.50;;;;;;5037182;28;20435;-78
2022/04/07 04:29:43;;;;;;;1.50;1.10;;;10.10;85.00;;;;;;5032707;28;20427;-78
2022/04/07 04:32:10;;;;;;;1.30;1.10;;;10.10;85.20;;;;;;5032042;28;20185;-78
2022/04/07 04:34:35;;;;;;;1.50;1.00;;;10.10;85.00;;;;;;5036947;28;20471;-77
2022/04/07 04:37:01;;;;;;;1.13;1.00;;;10.10;84.70;;;;;;5043193;28;21052;-78
2022/04/07 04:39:27;;;;;;;1.83;1.23;;;10.10;84.70;;;;;;5053555;28;20181;-77
2022/04/07 04:41:53;;;;;;;1.93;1.20;;;10.10;84.60;;;;;;5060000;28;20423;-77
2022/04/07 04:44:19;;;;;;;1.30;1.23;;;10.10;84.40;;;;;;5051568;28;20308;-77
2022/04/07 04:46:44;;;;;;;1.40;1.00;;;10.20;84.00;;;;;;5051388;28;20276;-78
2022/04/07 04:49:10;;;;;;;1.73;1.10;;;10.20;83.40;;;;;;5049495;28;20228;-76
2022/04/07 04:51:36;;;;;;;1.23;1.17;;;10.20;83.70;;;;;;5045783;28;20255;-75
2022/04/07 04:54:01;;;;;;;1.50;1.30;;;10.30;83.60;;;;;;5041028;28;20686;-75
2022/04/07 04:56:27;;;;;;;2.60;1.30;;;10.30;83.10;;;;;;5042863;28;20189;-74
2022/04/07 04:58:57;;;;;;;2.70;1.33;;;10.30;83.00;;;;;;5046835;28;20185;-74
2022/04/07 05:01:23;;;;;;;1.37;1.13;;;10.30;83.00;;;;;;5042544;28;20632;-76
2022/04/07 05:03:49;;;;;;;3.23;1.20;;;10.40;82.70;;;;;;5036980;28;20447;-76
2022/04/07 05:06:15;;;;;;;1.70;1.23;;;10.40;82.50;;;;;;5034401;28;20431;-76
2022/04/07 05:08:41;;;;;;;1.10;0.87;;;10.40;82.20;;;;;;5035092;28;20185;-75
2022/04/07 05:11:07;;;;;;;2.30;1.00;;;10.40;82.50;;;;;;5033264;28;20185;-77
2022/04/07 05:13:33;;;;;;;3.03;1.27;;;10.40;82.70;;;;;;5036222;28;20217;-79
2022/04/07 05:15:59;;;;;;;1.40;1.00;;;10.40;83.40;;;;;;5032827;28;20501;-77
2022/04/07 05:18:24;;;;;;;1.40;1.27;;;10.40;83.70;;;;;;5034324;28;20255;-77
2022/04/07 05:20:50;;;;;;;2.20;1.07;;;10.30;83.80;;;;;;5034827;28;20180;-77
2022/04/07 05:23:16;;;;;;;1.57;1.20;;;10.20;84.70;;;;;;5035591;28;20188;-78
2022/04/07 05:25:42;;;;;;;1.93;1.10;;;10.20;84.90;;;;;;5037760;28;20209;-78
2022/04/07 05:28:07;;;;;;;1.20;1.10;;;10.20;85.20;;;;;;5044648;28;20411;-77
2022/04/07 05:30:33;;;;;;;1.00;0.90;;;10.20;84.90;;;;;;5046775;28;20189;-77
2022/04/07 05:32:59;;;;;;;1.13;0.90;;;10.10;85.50;;;;;;5034013;28;20259;-77
2022/04/07 05:35:28;;;;;;;1.40;1.10;;;10.20;85.30;;;;;;5036085;28;20220;-77
2022/04/07 05:38:01;;;;;;;1.40;1.20;;;10.20;84.90;;;;;;5039840;28;20176;-77
2022/04/07 05:40:28;;;;;;;1.33;0.93;;;10.30;85.00;;;;;;5035743;28;20427;-76
2022/04/07 05:42:54;;;;;;;2.23;1.30;;;10.30;85.00;;;;;;5040075;28;20431;-77
2022/04/07 05:45:19;;;;;;;2.30;1.50;;;10.30;84.90;;;;;;5035526;28;20450;-75
2022/04/07 05:47:45;;;;;;;5.70;1.10;;;10.30;84.30;;;;;;5038230;28;20432;-77
2022/04/07 05:50:11;;;;;;;2.87;1.50;;;10.40;83.80;;;;;;5033422;28;20201;-77
2022/04/07 05:52:37;;;;;;;1.10;1.00;;;10.40;83.60;;;;;;5041669;28;20255;-77
2022/04/07 05:55:03;;;;;;;1.07;0.80;;;10.50;82.80;;;;;;5038478;28;20447;-77
2022/04/07 05:57:32;;;;;;;1.33;0.90;;;10.50;82.40;;;;;;5036377;28;20412;-76
2022/04/07 06:00:12;;;;;;;1.80;1.00;;;10.50;81.80;;;;;;5034069;28;20420;-77
2022/04/07 06:02:39;;;;;;;1.20;0.77;;;10.60;81.70;;;;;;5026080;28;20431;-77
2022/04/07 06:05:07;;;;;;;1.70;1.00;;;10.70;81.20;;;;;;5036329;28;20534;-78
2022/04/07 06:07:33;;;;;;;1.90;1.23;;;10.80;80.90;;;;;;5032148;28;20509;-76
2022/04/07 06:09:59;;;;;;;2.67;1.10;;;10.80;80.50;;;;;;5035929;28;20918;-76
2022/04/07 06:12:24;;;;;;;2.20;1.00;;;10.90;79.90;;;;;;5042542;28;20703;-77
2022/04/07 06:14:50;;;;;;;2.63;0.80;;;11.00;79.30;;;;;;5033953;28;20284;-77
2022/04/07 06:17:16;;;;;;;2.70;1.00;;;11.10;79.00;;;;;;5042921;28;20180;-77
2022/04/07 06:19:41;;;;;;;1.20;0.80;;;11.10;78.30;;;;;;5037719;28;20263;-76
2022/04/07 06:22:07;;;;;;;1.63;0.80;;;11.20;77.60;;;;;;5032808;28;20540;-76
2022/04/07 06:24:34;;;;;;;1.27;0.80;;;11.20;77.10;;;;;;5036479;28;20213;-77
2022/04/07 06:27:00;;;;;;;1.53;0.77;;;11.30;76.80;;;;;;5035261;28;20188;-76
2022/04/07 06:29:26;;;;;;;1.60;0.80;;;11.30;76.20;;;;;;5033295;28;20424;-77
2022/04/07 06:31:52;;;;;;;1.93;0.67;;;11.30;76.10;;;;;;5032999;28;20490;-76
2022/04/07 06:34:20;;;;;;;0.90;0.70;;;11.30;75.40;;;;;;5033666;28;20216;-76
2022/04/07 06:36:47;;;;;;;1.20;0.80;;;11.40;75.50;;;;;;5036818;28;20507;-77
2022/04/07 06:39:13;;;;;;;2.43;0.77;;;11.40;75.80;;;;;;5035004;28;20427;-77
2022/04/07 06:41:39;;;;;;;1.40;0.87;;;11.30;77.00;;;;;;5031786;28;20416;-77
2022/04/07 06:44:05;;;;;;;1.03;0.80;;;11.20;77.60;;;;;;5039830;28;20443;-77
2022/04/07 06:46:32;;;;;;;1.40;0.90;;;11.20;77.00;;;;;;5039605;28;20476;-78
2022/04/07 06:48:59;;;;;;;1.60;0.87;;;11.20;77.40;;;;;;5036489;28;20462;-77
2022/04/07 06:51:25;;;;;;;0.90;0.80;;;11.20;77.70;;;;;;5033793;28;20526;-77
2022/04/07 06:53:51;;;;;;;1.00;0.77;;;11.30;76.50;;;;;;5034110;28;20567;-76
2022/04/07 06:56:16;;;;;;;7.30;1.60;;;11.30;76.70;;;;;;5029944;28;20424;-76
2022/04/07 06:58:42;;;;;;;2.10;0.90;;;11.30;76.20;;;;;;5035697;28;20192;-77
2022/04/07 07:01:08;;;;;;;2.10;0.60;;;11.30;75.50;;;;;;5032335;28;20189;-77
2022/04/07 07:03:34;;;;;;;1.20;0.80;;;11.40;75.80;;;;;;5032743;28;20222;-77
2022/04/07 07:06:00;;;;;;;0.83;0.60;;;11.40;75.40;;;;;;5032680;28;20944;-76
2022/04/07 07:08:26;;;;;;;1.43;0.80;;;11.40;75.50;;;;;;5031032;28;20536;-75
2022/04/07 07:10:53;;;;;;;1.20;0.83;;;11.50;75.10;;;;;;5032383;28;20177;-77
2022/04/07 07:13:21;;;;;;;1.20;0.70;;;11.50;74.80;;;;;;5032687;28;20826;-77
2022/04/07 07:15:48;;;;;;;0.80;0.67;;;11.50;74.50;;;;;;5031185;28;20436;-77
2022/04/07 07:18:14;;;;;;;3.10;1.27;;;11.50;75.10;;;;;;5031340;28;20419;-76
2022/04/07 07:20:40;;;;;;;1.00;0.60;;;11.60;75.20;;;;;;5037213;28;20519;-76
2022/04/07 07:23:07;;;;;;;1.77;0.90;;;11.60;74.90;;;;;;5033992;28;20453;-76
2022/04/07 07:25:33;;;;;;;2.13;0.70;;;11.70;74.50;;;;;;5030053;28;20527;-77
2022/04/07 07:28:00;;;;;;;1.00;0.70;;;11.70;74.00;;;;;;5032998;28;20434;-76
2022/04/07 07:30:26;;;;;;;1.70;0.80;;;11.80;73.70;;;;;;5031947;28;20432;-76
2022/04/07 07:32:54;;;;;;;1.43;0.93;;;11.80;73.60;;;;;;5034612;28;20459;-76
2022/04/07 07:35:21;;;;;;;2.37;0.80;;;11.90;73.20;;;;;;5032585;28;20913;-75
2022/04/07 07:37:58;;;;;;;1.47;0.80;;;12.00;72.90;;;;;;5032050;28;20427;-76
2022/04/07 07:40:29;;;;;;;0.70;0.70;;;12.00;72.40;;;;;;5037047;28;20411;-77
2022/04/07 07:42:56;;;;;;;3.50;1.00;;;12.00;72.40;;;;;;5026590;28;20508;-76
2022/04/07 07:45:26;;;;;;;1.27;0.87;;;12.20;72.00;;;;;;5030770;28;20534;-77
2022/04/07 07:47:53;;;;;;;1.00;0.70;;;12.20;71.70;;;;;;5032267;28;20431;-77
2022/04/07 07:50:19;;;;;;;1.67;0.90;;;12.20;71.40;;;;;;5031355;28;20789;-77
2022/04/07 07:52:45;;;;;;;2.10;0.90;;;12.40;71.60;;;;;;5037681;28;20455;-76
2022/04/07 07:55:10;;;;;;;1.50;0.90;;;12.50;71.30;;;;;;5034395;28;20542;-79
2022/04/07 07:57:36;;;;;;;1.43;0.70;;;12.50;71.10;;;;;;5040653;28;20181;-76
2022/04/07 08:00:05;;;;;;;2.17;1.00;;;12.50;71.00;;;;;;5037771;28;20177;-76
2022/04/07 08:02:33;;;;;;;2.67;1.00;;;12.60;70.80;;;;;;5032546;28;20192;-76
2022/04/07 08:05:00;;;;;;;2.23;0.80;;;12.50;71.30;;;;;;5038803;28;20449;-77
2022/04/07 08:07:27;;;;;;;4.40;1.00;;;12.60;71.00;;;;;;5043489;28;20415;-76
2022/04/07 08:09:56;;;;;;;3.83;0.93;;;12.60;70.20;;;;;;5039293;28;20482;-76
2022/04/07 08:12:26;;;;;;;2.73;0.83;;;12.60;70.10;;;;;;5038943;28;20416;-76
2022/04/07 08:14:52;;;;;;;2.13;0.70;;;12.50;70.20;;;;;;5040681;28;20449;-76
2022/04/07 08:17:20;;;;;;;1.50;1.00;;;12.50;70.40;;;;;;5038858;28;20421;-76
2022/04/07 08:19:46;;;;;;;4.87;1.30;;;12.60;70.40;;;;;;5039761;28;20419;-77
2022/04/07 08:22:12;;;;;;;1.63;1.17;;;12.60;70.40;;;;;;5039086;28;20940;-77
2022/04/07 08:24:37;;;;;;;1.40;0.90;;;12.80;70.20;;;;;;5035540;28;20539;-76
2022/04/07 08:27:05;;;;;;;2.03;0.90;;;12.80;69.40;;;;;;5037186;28;20266;-76
2022/04/07 08:29:32;;;;;;;1.70;0.90;;;12.80;69.70;;;;;;5040926;28;20272;-76
2022/04/07 08:31:57;;;;;;;1.20;0.70;;;12.90;69.80;;;;;;5037794;28;20792;-76
2022/04/07 08:34:25;;;;;;;0.83;0.80;;;13.00;69.80;;;;;;5040730;28;20519;-75
2022/04/07 08:36:51;;;;;;;4.00;1.03;;;13.10;69.50;;;;;;5035831;28;20632;-76
2022/04/07 08:39:17;;;;;;;1.57;0.80;;;13.10;69.20;;;;;;5033326;28;20428;-77
2022/04/07 08:41:45;;;;;;;3.43;0.90;;;13.10;69.40;;;;;;5031985;28;20461;-76
2022/04/07 08:44:12;;;;;;;1.50;0.90;;;13.00;69.50;;;;;;5033646;28;20469;-77
2022/04/07 08:46:40;;;;;;;1.70;0.87;;;13.10;69.70;;;;;;5031027;28;20451;-77
2022/04/07 08:49:07;;;;;;;1.00;0.63;;;13.10;69.50;;;;;;5030392;28;20932;-76
2022/04/07 08:51:33;;;;;;;1.20;0.97;;;13.20;69.10;;;;;;5034004;28;20425;-77
2022/04/07 08:54:00;;;;;;;1.03;0.70;;;13.30;69.10;;;;;;5036036;28;20513;-76
2022/04/07 08:56:26;;;;;;;2.13;0.80;;;13.40;68.80;;;;;;5037097;28;20510;-78
2022/04/07 08:58:54;;;;;;;4.50;0.70;;;13.40;68.60;;;;;;5029476;28;20412;-78
2022/04/07 09:01:20;;;;;;;1.20;0.80;;;13.50;68.20;;;;;;5030941;28;20510;-77
2022/04/07 09:03:46;;;;;;;2.70;1.00;;;13.50;68.20;;;;;;5029472;28;20923;-77
2022/04/07 09:06:15;;;;;;;2.10;0.90;;;13.50;67.70;;;;;;5030070;28;20474;-77
2022/04/07 09:08:41;;;;;;;1.87;0.57;;;13.50;66.70;;;;;;5043856;28;20459;-75
2022/04/07 09:11:09;;;;;;;1.33;0.73;;;13.60;66.60;;;;;;5030455;28;20874;-76
2022/04/07 09:13:41;;;;;;;3.37;0.60;;;13.60;66.30;;;;;;5031140;28;20547;-77
2022/04/07 09:16:12;;;;;;;3.77;0.70;;;13.60;66.60;;;;;;5030139;28;20494;-77
2022/04/07 09:18:39;;;;;;;1.77;0.80;;;13.60;66.10;;;;;;5031806;28;20408;-76
2022/04/07 09:21:07;;;;;;;0.70;0.60;;;13.60;66.40;;;;;;5034335;28;20416;-77
2022/04/07 09:23:40;;;;;;;8.63;0.80;;;13.60;66.30;;;;;;5038335;28;20427;-77
2022/04/07 09:26:14;;;;;;;1.87;0.60;;;13.60;66.30;;;;;;5033166;28;20447;-77
2022/04/07 09:28:41;;;;;;;1.00;0.60;;;13.60;66.10;;;;;;5033090;28;20776;-77
2022/04/07 09:31:11;;;;;;;3.80;1.63;;;13.50;67.60;;;;;;5034403;28;20491;-77
2022/04/07 09:33:37;;;;;;;3.67;0.87;;;13.30;68.60;;;;;;5035072;28;20517;-77
2022/04/07 09:36:07;;;;;;;0.73;0.60;;;13.30;68.20;;;;;;5039765;28;20443;-77
2022/04/07 09:38:42;;;;;;;1.93;0.70;;;13.40;67.50;;;;;;5041429;28;20230;-79
2022/04/07 09:41:10;;;;;;;2.17;0.80;;;13.30;68.20;;;;;;5037352;28;20469;-77
2022/04/07 09:43:45;;;;;;;1.20;0.77;;;13.20;70.10;;;;;;5034536;28;20435;-76
2022/04/07 09:46:12;;;;;;;1.73;0.80;;;12.90;72.30;;;;;;5042461;28;20426;-76
2022/04/07 09:48:39;;;;;;;0.80;0.60;;;12.60;74.30;;;;;;5039284;28;20512;-76
2022/04/07 09:51:08;;;;;;;1.23;0.70;;;12.50;73.60;;;;;;5041871;28;20451;-77
2022/04/07 09:53:39;;;;;;;2.30;0.87;;;12.70;73.70;;;;;;5036145;28;20543;-77
2022/04/07 09:56:06;;;;;;;0.63;0.60;;;12.80;72.00;;;;;;5038845;28;20514;-75
2022/04/07 09:58:33;;;;;;;1.10;0.73;;;13.00;72.40;;;;;;5036954;28;20412;-76
2022/04/07 10:01:04;;;;;;;1.20;0.70;;;13.20;71.80;;;;;;5038225;28;20986;-76
2022/04/07 10:03:31;;;;;;;1.73;0.80;;;13.50;70.50;;;;;;5040733;28;20419;-76
2022/04/07 10:06:00;;;;;;;1.63;0.87;;;13.60;69.50;;;;;;5040514;28;20450;-75
2022/04/07 10:08:26;;;;;;;3.20;0.93;;;13.60;69.10;;;;;;5033662;28;20438;-76
2022/04/07 10:10:53;;;;;;;2.60;0.90;;;13.80;68.90;;;;;;5033137;28;20416;-76
2022/04/07 10:13:20;;;;;;;4.80;1.00;;;14.00;68.00;;;;;;5033041;28;20463;-77
2022/04/07 10:15:49;;;;;;;1.13;0.67;;;14.00;67.90;;;;;;5033276;28;20867;-78
2022/04/07 10:18:29;;;;;;;0.97;0.63;;;14.00;67.20;;;;;;5045957;28;20476;-78
2022/04/07 10:20:57;;;;;;;3.60;0.80;;;13.90;66.40;;;;;;5035790;28;20412;-77
2022/04/07 10:23:35;;;;;;;1.40;0.70;;;13.90;67.00;;;;;;5034354;28;20496;-78
2022/04/07 10:26:02;;;;;;;0.67;0.57;;;14.10;66.60;;;;;;5035123;28;20534;-76
2022/04/07 10:28:29;;;;;;;1.17;0.60;;;14.20;66.40;;;;;;5035868;28;20413;-75
2022/04/07 10:30:55;;;;;;;1.00;0.60;;;14.30;65.30;;;;;;5035119;28;20424;-76
2022/04/07 10:33:39;;;;;;;2.63;0.63;;;14.20;65.30;;;;;;5033164;28;20508;-76
2022/04/07 10:36:19;;;;;;;1.03;0.60;;;14.20;65.30;;;;;;5031383;28;20443;-76
2022/04/07 10:38:51;;;;;;;1.27;0.67;;;14.10;65.80;;;;;;5033370;28;20814;-77
2022/04/07 10:41:38;;;;;;;1.50;0.70;;;14.20;65.80;;;;;;5030440;28;20416;-76
2022/04/07 10:44:14;;;;;;;0.70;0.70;;;14.00;66.40;;;;;;5030779;28;20431;-77
2022/04/07 10:46:40;;;;;;;2.33;1.77;;;14.00;66.70;;;;;;5031717;28;20498;-77
2022/04/07 10:49:09;;;;;;;1.90;0.60;;;14.00;67.20;;;;;;5033708;28;20420;-78
2022/04/07 10:51:55;;;;;;;1.83;0.80;;;14.00;67.00;;;;;;5030867;28;20547;-77
2022/04/07 10:54:22;;;;;;;2.37;0.90;;;14.00;67.20;;;;;;5030658;28;20463;-76
2022/04/07 10:56:49;;;;;;;0.90;0.67;;;14.30;66.70;;;;;;5025920;28;20970;-77
2022/04/07 10:59:21;;;;;;;0.87;0.80;;;14.50;66.00;;;;;;5045128;28;20538;-76
2022/04/07 11:02:00;;;;;;;0.90;0.70;;;14.50;66.00;;;;;;5027713;28;20954;-76
2022/04/07 11:04:25;;;;;;;0.90;0.50;;;14.50;66.00;;;;;;5036434;28;20459;-76
2022/04/07 11:07:10;;;;;;;1.37;0.80;;;14.50;66.00;;;;;;5028825;28;20439;-77
2022/04/07 11:10:02;;;;;;;1.03;0.60;;;14.40;66.10;;;;;;5041941;28;20200;-76
2022/04/07 11:12:39;;;;;;;1.33;0.67;;;14.20;66.60;;;;;;5036878;28;20416;-77
2022/04/07 11:15:30;;;;;;;0.97;0.60;;;14.30;66.60;;;;;;5035241;28;20450;-76
2022/04/07 11:18:18;;;;;;;1.20;0.60;;;14.40;65.80;;;;;;5036919;28;20497;-78
2022/04/07 11:21:10;;;;;;;1.07;0.60;;;14.40;65.70;;;;;;5034208;28;20427;-76
2022/04/07 11:23:48;;;;;;;2.00;0.70;;;14.50;65.60;;;;;;5031204;28;20952;-74
2022/04/07 11:26:24;;;;;;;1.83;0.60;;;14.60;65.40;;;;;;5034418;28;20419;-77
2022/04/07 11:29:11;;;;;;;0.80;0.60;;;14.60;65.30;;;;;;5043173;28;20420;-75
2022/04/07 11:31:44;;;;;;;2.10;0.70;;;14.70;64.80;;;;;;5040396;28;20420;-76
2022/04/07 11:34:48;;;;;;;5.23;0.60;;;14.90;64.20;;;;;;5040562;28;20468;-75
2022/04/07 11:37:14;;;;;;;1.00;0.50;;;14.70;64.70;;;;;;5050335;28;20426;-77
2022/04/07 11:39:43;;;;;;;0.60;0.50;;;14.70;64.50;;;;;;5044939;28;20501;-77
2022/04/07 11:42:09;;;;;;;3.90;0.70;;;14.70;64.50;;;;;;5040291;28;20473;-75
2022/04/07 11:44:35;;;;;;;2.83;0.70;;;14.60;65.10;;;;;;5045526;28;20436;-75
2022/04/07 11:47:01;;;;;;;0.87;0.50;;;14.70;64.50;;;;;;5041735;28;20662;-77
2022/04/07 11:49:28;;;;;;;0.83;0.60;;;14.60;65.40;;;;;;5041112;28;20533;-77
2022/04/07 11:51:55;;;;;;;1.87;0.70;;;14.60;65.70;;;;;;5047186;28;20434;-76
2022/04/07 11:54:22;;;;;;;2.10;0.87;;;14.60;65.80;;;;;;5043899;28;20487;-77
2022/04/07 11:56:48;;;;;;;2.30;0.70;;;14.70;65.80;;;;;;5046046;28;20417;-77
2022/04/07 11:59:15;;;;;;;4.07;0.70;;;14.50;66.00;;;;;;5041755;28;20428;-75
2022/04/07 12:01:43;;;;;;;0.60;0.50;;;14.50;66.40;;;;;;5038471;28;20432;-75
2022/04/07 12:04:11;;;;;;;0.60;0.50;;;14.20;67.00;;;;;;5047309;28;20442;-76
2022/04/07 12:06:43;;;;;;;0.70;0.60;;;14.20;67.70;;;;;;5039177;28;20838;-77
2022/04/07 12:09:09;;;;;;;2.17;0.60;;;14.20;67.50;;;;;;5040578;28;20866;-76
2022/04/07 12:11:38;;;;;;;2.33;0.70;;;14.20;67.20;;;;;;5045725;28;20424;-77
2022/04/07 12:14:06;;;;;;;0.60;0.50;;;14.30;67.30;;;;;;5040781;28;20291;-78
2022/04/07 12:16:32;;;;;;;0.93;0.83;;;14.20;67.60;;;;;;5039536;28;20422;-78
2022/04/07 12:19:00;;;;;;;1.10;0.60;;;14.20;67.50;;;;;;5038687;28;20428;-75
2022/04/07 12:21:27;;;;;;;0.70;0.57;;;14.20;67.90;;;;;;5038818;28;20419;-77
2022/04/07 12:24:12;;;;;;;0.90;0.70;;;14.10;68.30;;;;;;5035323;28;20482;-77
2022/04/07 12:26:59;;;;;;;4.00;0.50;;;14.10;68.60;;;;;;5040542;28;20444;-76
2022/04/07 12:29:31;;;;;;;2.27;0.60;;;13.90;69.40;;;;;;5038520;28;20444;-78
2022/04/07 12:32:09;;;;;;;1.70;0.60;;;13.70;70.50;;;;;;5034488;28;20442;-77
2022/04/07 12:34:50;;;;;;;0.70;0.60;;;13.80;70.20;;;;;;5038255;28;20477;-76
2022/04/07 12:37:39;;;;;;;0.70;0.53;;;13.80;70.50;;;;;;5051510;28;20422;-76
2022/04/07 12:40:27;;;;;;;1.10;0.70;;;13.60;71.30;;;;;;5047971;28;20427;-78
2022/04/07 12:42:55;;;;;;;0.87;0.60;;;13.70;71.30;;;;;;5055241;28;20469;-73
2022/04/07 12:45:21;;;;;;;0.80;0.60;;;13.70;70.50;;;;;;5051174;28;20474;-76
2022/04/07 12:48:05;;;;;;;0.83;0.67;;;13.60;70.50;;;;;;5055372;28;20432;-77
2022/04/07 12:50:33;;;;;;;0.80;0.50;;;13.70;71.00;;;;;;5046384;28;20466;-76
2022/04/07 12:52:59;;;;;;;1.23;0.70;;;13.70;70.50;;;;;;5051272;28;20460;-76